sensor_id;sensor_type;location;lat;lon;timestamp;P1;durP1;ratioP1;P2;durP2;ratioP2
9938;SDS011;5008;50.656;7.188;2023-11-21T05:03:38;15.17;;;11.73;;
9938;SDS011;5008;50.656;7.188;2023-11-21T05:06:09;16.23;;;11.47;;
9938;SDS011;5008;50.656;7.188;2023-11-21T05:08:36;14.47;;;11.77;;
9938;SDS011;5008;50.656;7.188;2023-11-21T05:13:59;13.40;;;11.57;;
9938;SDS011;5008;50.656;7.188;2023-11-21T05:16:26;15.13;;;12.07;;
9938;SDS011;5008;50.656;7.188;2023-11-21T05:18:55;14.80;;;12.60;;
9938;SDS011;5008;50.656;7.188;2023-11-21T05:21:25;16.80;;;12.20;;
9938;SDS011;5008;50.656;7.188;2023-11-21T05:23:52;17.60;;;11.70;;
9938;SDS011;5008;50.656;7.188;2023-11-21T05:26:19;15.60;;;11.80;;
9938;SDS011;5008;50.656;7.188;2023-11-21T05:28:47;16.47;;;12.67;;
9938;SDS011;5008;50.656;7.188;2023-11-21T05:31:15;17.20;;;13.37;;
9938;SDS011;5008;50.656;7.188;2023-11-21T05:33:42;16.30;;;12.30;;
9938;SDS011;5008;50.656;7.188;2023-11-21T05:36:10;16.80;;;13.30;;
9938;SDS011;5008;50.656;7.188;2023-11-21T05:38:37;18.60;;;14.67;;
9938;SDS011;5008;50.656;7.188;2023-11-21T05:41:04;19.57;;;13.93;;
9938;SDS011;5008;50.656;7.188;2023-11-21T05:43:31;17.10;;;14.33;;
9938;SDS011;5008;50.656;7.188;2023-11-21T05:46:00;18.60;;;14.90;;
9938;SDS011;5008;50.656;7.188;2023-11-21T05:48:27;18.13;;;14.57;;
9938;SDS011;5008;50.656;7.188;2023-11-21T05:50:54;18.47;;;14.37;;
9938;SDS011;5008;50.656;7.188;2023-11-21T05:53:22;19.17;;;14.70;;
9938;SDS011;5008;50.656;7.188;2023-11-21T05:55:49;18.90;;;14.73;;
9938;SDS011;5008;50.656;7.188;2023-11-21T05:58:15;18.27;;;13.77;;
9938;SDS011;5008;50.656;7.188;2023-11-21T06:00:42;17.43;;;13.87;;
9938;SDS011;5008;50.656;7.188;2023-11-21T06:03:09;19.10;;;14.50;;
9938;SDS011;5008;50.656;7.188;2023-11-21T06:05:36;19.63;;;15.10;;
9938;SDS011;5008;50.656;7.188;2023-11-21T06:08:03;17.90;;;14.57;;
9938;SDS011;5008;50.656;7.188;2023-11-21T06:10:33;22.07;;;15.53;;
9938;SDS011;5008;50.656;7.188;2023-11-21T06:13:00;21.47;;;14.53;;
9938;SDS011;5008;50.656;7.188;2023-11-21T06:15:29;17.20;;;14.40;;
9938;SDS011;5008;50.656;7.188;2023-11-21T06:17:56;15.00;;;12.03;;
9938;SDS011;5008;50.656;7.188;2023-11-21T06:20:23;18.33;;;13.07;;
9938;SDS011;5008;50.656;7.188;2023-11-21T06:22:50;17.40;;;12.97;;
9938;SDS011;5008;50.656;7.188;2023-11-21T06:25:17;16.50;;;13.47;;
9938;SDS011;5008;50.656;7.188;2023-11-21T06:27:46;16.47;;;13.73;;
9938;SDS011;5008;50.656;7.188;2023-11-21T06:30:14;20.67;;;13.30;;
9938;SDS011;5008;50.656;7.188;2023-11-21T06:32:42;17.67;;;12.50;;
9938;SDS011;5008;50.656;7.188;2023-11-21T06:35:10;17.97;;;13.93;;
9938;SDS011;5008;50.656;7.188;2023-11-21T06:37:38;15.47;;;12.60;;
9938;SDS011;5008;50.656;7.188;2023-11-21T06:40:05;16.80;;;12.67;;
9938;SDS011;5008;50.656;7.188;2023-11-21T06:42:34;15.13;;;11.33;;
9938;SDS011;5008;50.656;7.188;2023-11-21T06:45:05;16.00;;;11.97;;
9938;SDS011;5008;50.656;7.188;2023-11-21T06:47:32;15.03;;;12.03;;
9938;SDS011;5008;50.656;7.188;2023-11-21T06:49:59;17.77;;;12.73;;
9938;SDS011;5008;50.656;7.188;2023-11-21T06:52:26;15.97;;;12.43;;
9938;SDS011;5008;50.656;7.188;2023-11-21T06:54:53;14.27;;;12.10;;
9938;SDS011;5008;50.656;7.188;2023-11-21T06:57:20;16.90;;;13.00;;
9938;SDS011;5008;50.656;7.188;2023-11-21T06:59:48;16.77;;;13.30;;
9938;SDS011;5008;50.656;7.188;2023-11-21T07:02:17;14.53;;;12.37;;
9938;SDS011;5008;50.656;7.188;2023-11-21T07:04:44;19.87;;;13.17;;
9938;SDS011;5008;50.656;7.188;2023-11-21T07:07:11;14.43;;;12.47;;
9938;SDS011;5008;50.656;7.188;2023-11-21T07:09:38;18.50;;;13.73;;
9938;SDS011;5008;50.656;7.188;2023-11-21T07:12:12;22.33;;;13.30;;
9938;SDS011;5008;50.656;7.188;2023-11-21T07:14:39;18.57;;;12.43;;
9938;SDS011;5008;50.656;7.188;2023-11-21T07:17:08;15.33;;;12.03;;
9938;SDS011;5008;50.656;7.188;2023-11-21T07:19:36;16.80;;;12.57;;
9938;SDS011;5008;50.656;7.188;2023-11-21T07:22:03;16.47;;;12.27;;
9938;SDS011;5008;50.656;7.188;2023-11-21T07:24:30;14.93;;;12.27;;
9938;SDS011;5008;50.656;7.188;2023-11-21T07:26:57;17.70;;;13.27;;
9938;SDS011;5008;50.656;7.188;2023-11-21T07:29:26;16.77;;;12.50;;
9938;SDS011;5008;50.656;7.188;2023-11-21T07:32:01;17.83;;;12.57;;
9938;SDS011;5008;50.656;7.188;2023-11-21T07:34:28;14.73;;;11.53;;
9938;SDS011;5008;50.656;7.188;2023-11-21T07:36:57;15.97;;;12.10;;
9938;SDS011;5008;50.656;7.188;2023-11-21T07:39:24;16.23;;;11.80;;
9938;SDS011;5008;50.656;7.188;2023-11-21T07:41:50;18.03;;;11.37;;
9938;SDS011;5008;50.656;7.188;2023-11-21T07:44:17;17.00;;;11.80;;
9938;SDS011;5008;50.656;7.188;2023-11-21T07:46:44;17.33;;;11.70;;
9938;SDS011;5008;50.656;7.188;2023-11-21T07:49:11;16.40;;;11.90;;
9938;SDS011;5008;50.656;7.188;2023-11-21T07:51:40;16.23;;;12.00;;
9938;SDS011;5008;50.656;7.188;2023-11-21T07:54:09;18.70;;;11.87;;
9938;SDS011;5008;50.656;7.188;2023-11-21T07:56:36;17.67;;;11.73;;
9938;SDS011;5008;50.656;7.188;2023-11-21T07:59:03;19.43;;;11.73;;
9938;SDS011;5008;50.656;7.188;2023-11-21T08:01:29;17.73;;;10.87;;
9938;SDS011;5008;50.656;7.188;2023-11-21T08:03:56;16.37;;;11.70;;
9938;SDS011;5008;50.656;7.188;2023-11-21T08:06:26;17.53;;;11.13;;
9938;SDS011;5008;50.656;7.188;2023-11-21T08:08:53;16.73;;;10.80;;
9938;SDS011;5008;50.656;7.188;2023-11-21T08:11:21;19.53;;;10.63;;
9938;SDS011;5008;50.656;7.188;2023-11-21T08:13:48;16.93;;;10.67;;
9938;SDS011;5008;50.656;7.188;2023-11-21T08:16:15;14.80;;;10.43;;
9938;SDS011;5008;50.656;7.188;2023-11-21T08:18:42;16.37;;;11.70;;
9938;SDS011;5008;50.656;7.188;2023-11-21T08:21:09;18.10;;;11.33;;
9938;SDS011;5008;50.656;7.188;2023-11-21T08:23:37;17.00;;;11.03;;
9938;SDS011;5008;50.656;7.188;2023-11-21T08:26:04;17.67;;;11.83;;
9938;SDS011;5008;50.656;7.188;2023-11-21T08:28:32;14.73;;;10.70;;
9938;SDS011;5008;50.656;7.188;2023-11-21T08:31:00;16.50;;;11.10;;
9938;SDS011;5008;50.656;7.188;2023-11-21T08:33:27;16.87;;;11.67;;
9938;SDS011;5008;50.656;7.188;2023-11-21T08:35:54;16.13;;;11.77;;
9938;SDS011;5008;50.656;7.188;2023-11-21T08:38:20;18.63;;;11.33;;
9938;SDS011;5008;50.656;7.188;2023-11-21T08:40:47;15.83;;;10.93;;
9938;SDS011;5008;50.656;7.188;2023-11-21T08:43:14;14.10;;;10.90;;
9938;SDS011;5008;50.656;7.188;2023-11-21T08:45:42;19.73;;;12.87;;
9938;SDS011;5008;50.656;7.188;2023-11-21T08:48:09;16.40;;;12.00;;
9938;SDS011;5008;50.656;7.188;2023-11-21T08:50:37;18.27;;;11.60;;
9938;SDS011;5008;50.656;7.188;2023-11-21T08:53:03;15.73;;;10.50;;
9938;SDS011;5008;50.656;7.188;2023-11-21T08:55:30;14.33;;;10.60;;
9938;SDS011;5008;50.656;7.188;2023-11-21T08:58:02;17.93;;;11.10;;
9938;SDS011;5008;50.656;7.188;2023-11-21T09:00:32;16.67;;;11.00;;
9938;SDS011;5008;50.656;7.188;2023-11-21T09:03:02;16.90;;;11.50;;
9938;SDS011;5008;50.656;7.188;2023-11-21T09:05:33;20.03;;;12.10;;
9938;SDS011;5008;50.656;7.188;2023-11-21T09:08:00;16.20;;;11.43;;
9938;SDS011;5008;50.656;7.188;2023-11-21T09:10:27;18.83;;;12.17;;
9938;SDS011;5008;50.656;7.188;2023-11-21T09:12:54;18.70;;;12.37;;
9938;SDS011;5008;50.656;7.188;2023-11-21T09:15:21;17.97;;;12.47;;
9938;SDS011;5008;50.656;7.188;2023-11-21T09:17:47;16.40;;;12.20;;
9938;SDS011;5008;50.656;7.188;2023-11-21T09:20:16;17.20;;;12.37;;
9938;SDS011;5008;50.656;7.188;2023-11-21T09:22:42;19.80;;;12.80;;
9938;SDS011;5008;50.656;7.188;2023-11-21T09:25:11;17.70;;;13.17;;
9938;SDS011;5008;50.656;7.188;2023-11-21T09:27:38;16.83;;;11.93;;
9938;SDS011;5008;50.656;7.188;2023-11-21T09:30:05;19.80;;;11.83;;
9938;SDS011;5008;50.656;7.188;2023-11-21T09:32:35;18.73;;;12.43;;
9938;SDS011;5008;50.656;7.188;2023-11-21T09:35:02;15.53;;;11.60;;
9938;SDS011;5008;50.656;7.188;2023-11-21T09:37:31;18.30;;;11.47;;
9938;SDS011;5008;50.656;7.188;2023-11-21T09:39:58;18.40;;;12.23;;
9938;SDS011;5008;50.656;7.188;2023-11-21T09:42:28;18.37;;;12.93;;
9938;SDS011;5008;50.656;7.188;2023-11-21T09:45:13;17.40;;;11.93;;
9938;SDS011;5008;50.656;7.188;2023-11-21T09:47:45;16.03;;;11.37;;
9938;SDS011;5008;50.656;7.188;2023-11-21T09:50:13;21.37;;;13.03;;
9938;SDS011;5008;50.656;7.188;2023-11-21T09:52:46;17.60;;;13.10;;
9938;SDS011;5008;50.656;7.188;2023-11-21T09:58:02;20.30;;;12.73;;
9938;SDS011;5008;50.656;7.188;2023-11-21T10:00:32;18.50;;;13.03;;
9938;SDS011;5008;50.656;7.188;2023-11-21T10:05:30;19.67;;;13.87;;
9938;SDS011;5008;50.656;7.188;2023-11-21T10:08:00;19.40;;;14.30;;
9938;SDS011;5008;50.656;7.188;2023-11-21T10:10:28;20.73;;;13.90;;
9938;SDS011;5008;50.656;7.188;2023-11-21T10:15:31;22.57;;;14.47;;
9938;SDS011;5008;50.656;7.188;2023-11-21T10:18:01;24.50;;;15.87;;
9938;SDS011;5008;50.656;7.188;2023-11-21T10:20:29;24.17;;;15.53;;
9938;SDS011;5008;50.656;7.188;2023-11-21T10:22:58;20.77;;;15.23;;
9938;SDS011;5008;50.656;7.188;2023-11-21T10:25:28;24.03;;;16.30;;
9938;SDS011;5008;50.656;7.188;2023-11-21T10:27:57;21.60;;;14.67;;
9938;SDS011;5008;50.656;7.188;2023-11-21T10:30:27;26.87;;;16.37;;
9938;SDS011;5008;50.656;7.188;2023-11-21T10:32:58;22.63;;;15.63;;
9938;SDS011;5008;50.656;7.188;2023-11-21T10:35:38;25.43;;;16.90;;
9938;SDS011;5008;50.656;7.188;2023-11-21T10:38:07;22.53;;;16.23;;
9938;SDS011;5008;50.656;7.188;2023-11-21T10:40:37;30.23;;;16.07;;
9938;SDS011;5008;50.656;7.188;2023-11-21T10:43:06;22.50;;;15.17;;
9938;SDS011;5008;50.656;7.188;2023-11-21T10:45:34;24.03;;;15.57;;
9938;SDS011;5008;50.656;7.188;2023-11-21T10:48:04;23.27;;;15.77;;
9938;SDS011;5008;50.656;7.188;2023-11-21T10:50:33;22.30;;;15.80;;
9938;SDS011;5008;50.656;7.188;2023-11-21T10:53:01;25.63;;;15.77;;
9938;SDS011;5008;50.656;7.188;2023-11-21T10:55:31;24.00;;;16.03;;
9938;SDS011;5008;50.656;7.188;2023-11-21T10:57:59;25.03;;;16.77;;
9938;SDS011;5008;50.656;7.188;2023-11-21T11:00:30;24.07;;;16.83;;
9938;SDS011;5008;50.656;7.188;2023-11-21T11:02:58;21.80;;;15.97;;
9938;SDS011;5008;50.656;7.188;2023-11-21T11:05:27;26.00;;;17.57;;
9938;SDS011;5008;50.656;7.188;2023-11-21T11:07:56;26.77;;;17.77;;
9938;SDS011;5008;50.656;7.188;2023-11-21T11:10:26;29.33;;;18.80;;
9938;SDS011;5008;50.656;7.188;2023-11-21T11:12:55;26.90;;;18.40;;
9938;SDS011;5008;50.656;7.188;2023-11-21T11:15:26;28.07;;;18.17;;
9938;SDS011;5008;50.656;7.188;2023-11-21T11:17:54;31.50;;;19.10;;
9938;SDS011;5008;50.656;7.188;2023-11-21T11:20:22;26.13;;;18.00;;
9938;SDS011;5008;50.656;7.188;2023-11-21T11:22:56;26.03;;;16.67;;
9938;SDS011;5008;50.656;7.188;2023-11-21T11:25:47;23.03;;;16.80;;
9938;SDS011;5008;50.656;7.188;2023-11-21T11:28:29;23.73;;;17.10;;
9938;SDS011;5008;50.656;7.188;2023-11-21T11:31:05;23.70;;;16.50;;
9938;SDS011;5008;50.656;7.188;2023-11-21T11:33:41;22.20;;;16.00;;
9938;SDS011;5008;50.656;7.188;2023-11-21T11:36:15;24.13;;;15.87;;
9938;SDS011;5008;50.656;7.188;2023-11-21T11:38:47;22.00;;;16.30;;
9938;SDS011;5008;50.656;7.188;2023-11-21T11:41:19;22.13;;;16.57;;
9938;SDS011;5008;50.656;7.188;2023-11-21T11:43:53;16.67;;;12.73;;
9938;SDS011;5008;50.656;7.188;2023-11-21T11:46:20;22.87;;;16.43;;
9938;SDS011;5008;50.656;7.188;2023-11-21T11:49:10;21.30;;;14.73;;
9938;SDS011;5008;50.656;7.188;2023-11-21T11:51:57;23.67;;;15.90;;
9938;SDS011;5008;50.656;7.188;2023-11-21T11:55:05;22.80;;;15.37;;
9938;SDS011;5008;50.656;7.188;2023-11-21T11:57:35;18.87;;;14.77;;
9938;SDS011;5008;50.656;7.188;2023-11-21T12:00:08;22.93;;;15.77;;
9938;SDS011;5008;50.656;7.188;2023-11-21T12:02:44;26.60;;;22.07;;
9938;SDS011;5008;50.656;7.188;2023-11-21T12:05:13;26.93;;;16.60;;
9938;SDS011;5008;50.656;7.188;2023-11-21T12:07:42;23.17;;;17.37;;
9938;SDS011;5008;50.656;7.188;2023-11-21T12:10:14;25.30;;;17.17;;
9938;SDS011;5008;50.656;7.188;2023-11-21T12:12:44;24.27;;;18.30;;
9938;SDS011;5008;50.656;7.188;2023-11-21T12:15:13;23.63;;;18.03;;
9938;SDS011;5008;50.656;7.188;2023-11-21T12:17:41;23.40;;;17.10;;
9938;SDS011;5008;50.656;7.188;2023-11-21T12:20:09;26.43;;;16.83;;
9938;SDS011;5008;50.656;7.188;2023-11-21T12:22:44;24.60;;;17.93;;
9938;SDS011;5008;50.656;7.188;2023-11-21T12:25:13;27.47;;;17.93;;
9938;SDS011;5008;50.656;7.188;2023-11-21T12:27:44;23.43;;;17.80;;
9938;SDS011;5008;50.656;7.188;2023-11-21T12:30:12;22.73;;;16.67;;
9938;SDS011;5008;50.656;7.188;2023-11-21T12:32:41;22.57;;;16.60;;
9938;SDS011;5008;50.656;7.188;2023-11-21T12:35:08;23.50;;;15.07;;
9938;SDS011;5008;50.656;7.188;2023-11-21T12:37:36;21.33;;;14.93;;
9938;SDS011;5008;50.656;7.188;2023-11-21T12:40:04;20.30;;;15.57;;
9938;SDS011;5008;50.656;7.188;2023-11-21T12:42:33;20.83;;;14.60;;
9938;SDS011;5008;50.656;7.188;2023-11-21T12:45:07;23.33;;;16.03;;
9938;SDS011;5008;50.656;7.188;2023-11-21T12:47:41;21.13;;;15.87;;
9938;SDS011;5008;50.656;7.188;2023-11-21T12:50:08;20.63;;;15.43;;
9938;SDS011;5008;50.656;7.188;2023-11-21T12:52:43;22.47;;;15.60;;
9938;SDS011;5008;50.656;7.188;2023-11-21T12:55:16;21.00;;;14.40;;
9938;SDS011;5008;50.656;7.188;2023-11-21T12:57:44;21.60;;;15.03;;
9938;SDS011;5008;50.656;7.188;2023-11-21T13:00:12;21.13;;;14.57;;
9938;SDS011;5008;50.656;7.188;2023-11-21T13:02:53;23.20;;;15.30;;
9938;SDS011;5008;50.656;7.188;2023-11-21T13:05:29;20.53;;;15.90;;
9938;SDS011;5008;50.656;7.188;2023-11-21T13:07:59;23.67;;;14.27;;
9938;SDS011;5008;50.656;7.188;2023-11-21T13:10:29;21.20;;;14.10;;
9938;SDS011;5008;50.656;7.188;2023-11-21T13:12:57;20.47;;;14.73;;
9938;SDS011;5008;50.656;7.188;2023-11-21T13:15:25;22.70;;;14.67;;
9938;SDS011;5008;50.656;7.188;2023-11-21T13:17:54;17.27;;;13.70;;
9938;SDS011;5008;50.656;7.188;2023-11-21T13:20:22;20.27;;;13.97;;
9938;SDS011;5008;50.656;7.188;2023-11-21T13:22:51;21.50;;;14.90;;
9938;SDS011;5008;50.656;7.188;2023-11-21T13:25:22;21.80;;;15.63;;
9938;SDS011;5008;50.656;7.188;2023-11-21T13:27:49;19.73;;;13.63;;
9938;SDS011;5008;50.656;7.188;2023-11-21T13:30:16;18.87;;;13.47;;
9938;SDS011;5008;50.656;7.188;2023-11-21T13:32:44;18.67;;;14.00;;
9938;SDS011;5008;50.656;7.188;2023-11-21T13:35:13;19.57;;;13.33;;
9938;SDS011;5008;50.656;7.188;2023-11-21T13:37:48;23.87;;;13.73;;
9938;SDS011;5008;50.656;7.188;2023-11-21T13:40:21;20.10;;;13.03;;
9938;SDS011;5008;50.656;7.188;2023-11-21T13:42:52;19.07;;;13.17;;
9938;SDS011;5008;50.656;7.188;2023-11-21T13:45:20;16.87;;;11.93;;
9938;SDS011;5008;50.656;7.188;2023-11-21T13:47:49;21.47;;;14.43;;
9938;SDS011;5008;50.656;7.188;2023-11-21T13:50:24;19.70;;;13.77;;
9938;SDS011;5008;50.656;7.188;2023-11-21T13:52:57;19.27;;;13.20;;
9938;SDS011;5008;50.656;7.188;2023-11-21T13:55:28;20.50;;;13.17;;
9938;SDS011;5008;50.656;7.188;2023-11-21T13:57:55;20.97;;;13.50;;
9938;SDS011;5008;50.656;7.188;2023-11-21T14:00:21;19.83;;;13.10;;
9938;SDS011;5008;50.656;7.188;2023-11-21T14:03:09;20.70;;;13.90;;
9938;SDS011;5008;50.656;7.188;2023-11-21T14:05:45;19.70;;;13.93;;
9938;SDS011;5008;50.656;7.188;2023-11-21T14:08:16;19.30;;;12.47;;
9938;SDS011;5008;50.656;7.188;2023-11-21T14:10:45;18.07;;;12.33;;
9938;SDS011;5008;50.656;7.188;2023-11-21T14:13:15;21.53;;;13.67;;
9938;SDS011;5008;50.656;7.188;2023-11-21T14:15:43;16.23;;;12.50;;
9938;SDS011;5008;50.656;7.188;2023-11-21T14:18:11;21.60;;;12.97;;
9938;SDS011;5008;50.656;7.188;2023-11-21T14:20:42;16.47;;;12.03;;
9938;SDS011;5008;50.656;7.188;2023-11-21T14:23:10;20.53;;;11.97;;
9938;SDS011;5008;50.656;7.188;2023-11-21T14:25:51;18.73;;;12.17;;
9938;SDS011;5008;50.656;7.188;2023-11-21T14:28:18;17.70;;;11.87;;
9938;SDS011;5008;50.656;7.188;2023-11-21T14:30:45;17.30;;;12.00;;
9938;SDS011;5008;50.656;7.188;2023-11-21T14:33:12;19.60;;;12.57;;
9938;SDS011;5008;50.656;7.188;2023-11-21T14:35:41;20.90;;;12.20;;
9938;SDS011;5008;50.656;7.188;2023-11-21T14:38:08;16.10;;;11.70;;
9938;SDS011;5008;50.656;7.188;2023-11-21T14:40:36;17.07;;;12.00;;
9938;SDS011;5008;50.656;7.188;2023-11-21T14:43:06;20.27;;;12.37;;
9938;SDS011;5008;50.656;7.188;2023-11-21T14:45:33;20.63;;;11.30;;
9938;SDS011;5008;50.656;7.188;2023-11-21T14:48:00;20.03;;;13.00;;
9938;SDS011;5008;50.656;7.188;2023-11-21T14:50:33;18.57;;;10.60;;
9938;SDS011;5008;50.656;7.188;2023-11-21T14:53:13;17.63;;;11.70;;
9938;SDS011;5008;50.656;7.188;2023-11-21T14:55:40;16.73;;;11.73;;
9938;SDS011;5008;50.656;7.188;2023-11-21T14:58:21;21.33;;;13.40;;
9938;SDS011;5008;50.656;7.188;2023-11-21T15:00:55;16.53;;;11.57;;
9938;SDS011;5008;50.656;7.188;2023-11-21T15:03:26;16.97;;;11.60;;
9938;SDS011;5008;50.656;7.188;2023-11-21T15:06:09;17.40;;;11.57;;
9938;SDS011;5008;50.656;7.188;2023-11-21T15:08:49;18.00;;;11.77;;
9938;SDS011;5008;50.656;7.188;2023-11-21T15:11:25;17.40;;;12.03;;
9938;SDS011;5008;50.656;7.188;2023-11-21T15:13:56;17.63;;;10.73;;
9938;SDS011;5008;50.656;7.188;2023-11-21T15:16:22;17.73;;;12.17;;
9938;SDS011;5008;50.656;7.188;2023-11-21T15:18:50;19.73;;;11.80;;
9938;SDS011;5008;50.656;7.188;2023-11-21T15:21:18;16.20;;;12.27;;
9938;SDS011;5008;50.656;7.188;2023-11-21T15:23:47;17.83;;;11.57;;
9938;SDS011;5008;50.656;7.188;2023-11-21T15:26:13;16.20;;;11.10;;
9938;SDS011;5008;50.656;7.188;2023-11-21T15:28:42;16.30;;;10.53;;
9938;SDS011;5008;50.656;7.188;2023-11-21T15:31:08;17.63;;;11.10;;
9938;SDS011;5008;50.656;7.188;2023-11-21T15:33:35;17.23;;;11.33;;
9938;SDS011;5008;50.656;7.188;2023-11-21T15:36:02;19.17;;;11.27;;
9938;SDS011;5008;50.656;7.188;2023-11-21T15:38:30;19.03;;;11.90;;
9938;SDS011;5008;50.656;7.188;2023-11-21T15:40:57;18.57;;;12.30;;
9938;SDS011;5008;50.656;7.188;2023-11-21T15:43:24;19.33;;;11.23;;
9938;SDS011;5008;50.656;7.188;2023-11-21T15:45:54;19.53;;;12.57;;
9938;SDS011;5008;50.656;7.188;2023-11-21T15:48:21;23.43;;;12.97;;
9938;SDS011;5008;50.656;7.188;2023-11-21T15:50:48;19.67;;;13.20;;
9938;SDS011;5008;50.656;7.188;2023-11-21T15:53:17;20.00;;;13.60;;
9938;SDS011;5008;50.656;7.188;2023-11-21T15:55:44;19.47;;;13.80;;
9938;SDS011;5008;50.656;7.188;2023-11-21T15:58:11;22.70;;;13.73;;
9938;SDS011;5008;50.656;7.188;2023-11-21T16:00:37;22.57;;;14.47;;
9938;SDS011;5008;50.656;7.188;2023-11-21T16:03:05;20.13;;;13.27;;
9938;SDS011;5008;50.656;7.188;2023-11-21T16:05:31;20.93;;;13.93;;
9938;SDS011;5008;50.656;7.188;2023-11-21T16:07:58;21.23;;;14.10;;
9938;SDS011;5008;50.656;7.188;2023-11-21T16:10:25;18.97;;;13.37;;
9938;SDS011;5008;50.656;7.188;2023-11-21T16:12:52;21.27;;;13.80;;
9938;SDS011;5008;50.656;7.188;2023-11-21T16:15:19;22.23;;;13.50;;
9938;SDS011;5008;50.656;7.188;2023-11-21T16:17:47;21.30;;;13.67;;
9938;SDS011;5008;50.656;7.188;2023-11-21T16:20:15;22.33;;;13.17;;
9938;SDS011;5008;50.656;7.188;2023-11-21T16:22:42;20.27;;;14.13;;
9938;SDS011;5008;50.656;7.188;2023-11-21T16:25:10;23.00;;;13.80;;
9938;SDS011;5008;50.656;7.188;2023-11-21T16:27:39;22.73;;;14.20;;
9938;SDS011;5008;50.656;7.188;2023-11-21T16:30:07;22.67;;;14.20;;
9938;SDS011;5008;50.656;7.188;2023-11-21T16:32:35;21.30;;;14.20;;
9938;SDS011;5008;50.656;7.188;2023-11-21T16:35:02;21.33;;;13.63;;
9938;SDS011;5008;50.656;7.188;2023-11-21T16:37:30;23.90;;;14.27;;
9938;SDS011;5008;50.656;7.188;2023-11-21T16:39:57;19.53;;;12.77;;
9938;SDS011;5008;50.656;7.188;2023-11-21T16:42:24;21.43;;;12.77;;
9938;SDS011;5008;50.656;7.188;2023-11-21T16:44:52;21.07;;;12.73;;
9938;SDS011;5008;50.656;7.188;2023-11-21T16:47:19;23.97;;;14.80;;
9938;SDS011;5008;50.656;7.188;2023-11-21T16:49:48;22.87;;;14.23;;
9938;SDS011;5008;50.656;7.188;2023-11-21T16:52:15;23.70;;;13.73;;
9938;SDS011;5008;50.656;7.188;2023-11-21T16:54:43;24.93;;;15.13;;
9938;SDS011;5008;50.656;7.188;2023-11-21T16:57:10;22.70;;;14.83;;
9938;SDS011;5008;50.656;7.188;2023-11-21T16:59:37;23.20;;;15.10;;
9938;SDS011;5008;50.656;7.188;2023-11-21T17:02:04;27.23;;;15.17;;
9938;SDS011;5008;50.656;7.188;2023-11-21T17:04:30;25.03;;;15.37;;
9938;SDS011;5008;50.656;7.188;2023-11-21T17:06:59;29.03;;;17.07;;
9938;SDS011;5008;50.656;7.188;2023-11-21T17:09:26;28.77;;;17.57;;
9938;SDS011;5008;50.656;7.188;2023-11-21T17:11:55;33.03;;;18.23;;
9938;SDS011;5008;50.656;7.188;2023-11-21T17:14:23;29.40;;;16.50;;
9938;SDS011;5008;50.656;7.188;2023-11-21T17:16:50;32.53;;;17.83;;
9938;SDS011;5008;50.656;7.188;2023-11-21T17:19:17;32.90;;;17.00;;
9938;SDS011;5008;50.656;7.188;2023-11-21T17:21:44;25.50;;;16.50;;
9938;SDS011;5008;50.656;7.188;2023-11-21T17:24:11;33.80;;;17.93;;
9938;SDS011;5008;50.656;7.188;2023-11-21T17:26:40;31.37;;;17.93;;
9938;SDS011;5008;50.656;7.188;2023-11-21T17:29:08;31.20;;;18.30;;
9938;SDS011;5008;50.656;7.188;2023-11-21T17:31:35;29.57;;;17.53;;
9938;SDS011;5008;50.656;7.188;2023-11-21T17:34:03;29.53;;;18.13;;
9938;SDS011;5008;50.656;7.188;2023-11-21T17:36:29;27.40;;;16.53;;
9938;SDS011;5008;50.656;7.188;2023-11-21T17:39:02;29.03;;;16.23;;
9938;SDS011;5008;50.656;7.188;2023-11-21T17:41:34;26.47;;;15.67;;
9938;SDS011;5008;50.656;7.188;2023-11-21T17:44:01;27.47;;;16.37;;
9938;SDS011;5008;50.656;7.188;2023-11-21T17:46:30;30.37;;;17.27;;
9938;SDS011;5008;50.656;7.188;2023-11-21T17:48:57;29.43;;;16.67;;
9938;SDS011;5008;50.656;7.188;2023-11-21T17:51:24;25.67;;;16.67;;
9938;SDS011;5008;50.656;7.188;2023-11-21T17:53:50;26.23;;;16.90;;
9938;SDS011;5008;50.656;7.188;2023-11-21T17:56:23;28.93;;;15.73;;
9938;SDS011;5008;50.656;7.188;2023-11-21T17:58:49;23.33;;;15.17;;
9938;SDS011;5008;50.656;7.188;2023-11-21T18:01:19;20.50;;;13.20;;
9938;SDS011;5008;50.656;7.188;2023-11-21T18:03:47;15.97;;;12.00;;
9938;SDS011;5008;50.656;7.188;2023-11-21T18:06:14;16.73;;;11.20;;
9938;SDS011;5008;50.656;7.188;2023-11-21T18:08:41;15.13;;;10.93;;
9938;SDS011;5008;50.656;7.188;2023-11-21T18:11:07;15.43;;;10.93;;
9938;SDS011;5008;50.656;7.188;2023-11-21T18:13:34;12.83;;;10.63;;
9938;SDS011;5008;50.656;7.188;2023-11-21T18:16:01;15.97;;;11.80;;
9938;SDS011;5008;50.656;7.188;2023-11-21T18:21:16;14.50;;;10.03;;
9938;SDS011;5008;50.656;7.188;2023-11-21T18:23:43;14.10;;;9.60;;
9938;SDS011;5008;50.656;7.188;2023-11-21T18:26:10;12.50;;;9.47;;
9938;SDS011;5008;50.656;7.188;2023-11-21T18:28:41;10.47;;;8.63;;
9938;SDS011;5008;50.656;7.188;2023-11-21T18:31:08;7.83;;;6.37;;
9938;SDS011;5008;50.656;7.188;2023-11-21T18:33:35;7.63;;;5.93;;
9938;SDS011;5008;50.656;7.188;2023-11-21T18:36:03;7.03;;;5.47;;
9938;SDS011;5008;50.656;7.188;2023-11-21T18:38:32;7.00;;;5.40;;
9938;SDS011;5008;50.656;7.188;2023-11-21T18:41:00;6.83;;;5.83;;
9938;SDS011;5008;50.656;7.188;2023-11-21T18:43:27;6.33;;;5.73;;
9938;SDS011;5008;50.656;7.188;2023-11-21T18:45:54;7.63;;;5.57;;
9938;SDS011;5008;50.656;7.188;2023-11-21T18:48:21;6.73;;;5.63;;
9938;SDS011;5008;50.656;7.188;2023-11-21T18:50:48;6.80;;;5.83;;
9938;SDS011;5008;50.656;7.188;2023-11-21T18:53:21;5.90;;;5.13;;
9938;SDS011;5008;50.656;7.188;2023-11-21T18:55:48;7.03;;;5.67;;
9938;SDS011;5008;50.656;7.188;2023-11-21T18:58:15;6.70;;;5.53;;
9938;SDS011;5008;50.656;7.188;2023-11-21T19:00:41;7.20;;;5.70;;
9938;SDS011;5008;50.656;7.188;2023-11-21T19:03:08;7.33;;;6.00;;
9938;SDS011;5008;50.656;7.188;2023-11-21T19:05:36;6.73;;;5.87;;
9938;SDS011;5008;50.656;7.188;2023-11-21T19:08:03;6.90;;;6.20;;
9938;SDS011;5008;50.656;7.188;2023-11-21T19:10:32;7.87;;;6.27;;
9938;SDS011;5008;50.656;7.188;2023-11-21T19:13:04;9.00;;;7.23;;
9938;SDS011;5008;50.656;7.188;2023-11-21T19:15:31;13.83;;;12.43;;
9938;SDS011;5008;50.656;7.188;2023-11-21T19:17:58;17.40;;;15.00;;
9938;SDS011;5008;50.656;7.188;2023-11-21T19:20:25;14.50;;;11.50;;
9938;SDS011;5008;50.656;7.188;2023-11-21T19:22:52;12.63;;;8.00;;
9938;SDS011;5008;50.656;7.188;2023-11-21T19:25:20;12.83;;;8.77;;
9938;SDS011;5008;50.656;7.188;2023-11-21T19:27:49;7.67;;;6.50;;
9938;SDS011;5008;50.656;7.188;2023-11-21T19:30:16;7.43;;;6.73;;
9938;SDS011;5008;50.656;7.188;2023-11-21T19:32:43;6.83;;;5.47;;
9938;SDS011;5008;50.656;7.188;2023-11-21T19:35:10;5.33;;;4.83;;
9938;SDS011;5008;50.656;7.188;2023-11-21T19:37:37;3.67;;;3.37;;
9938;SDS011;5008;50.656;7.188;2023-11-21T19:40:04;3.87;;;3.57;;
9938;SDS011;5008;50.656;7.188;2023-11-21T19:42:32;4.53;;;4.13;;
9938;SDS011;5008;50.656;7.188;2023-11-21T19:45:01;4.67;;;4.20;;
9938;SDS011;5008;50.656;7.188;2023-11-21T19:47:28;4.47;;;4.07;;
9938;SDS011;5008;50.656;7.188;2023-11-21T19:49:54;4.53;;;4.20;;
9938;SDS011;5008;50.656;7.188;2023-11-21T19:52:21;4.87;;;4.33;;
9938;SDS011;5008;50.656;7.188;2023-11-21T19:54:50;4.30;;;3.90;;
9938;SDS011;5008;50.656;7.188;2023-11-21T19:57:18;3.97;;;3.57;;
9938;SDS011;5008;50.656;7.188;2023-11-21T19:59:45;3.90;;;3.47;;
9938;SDS011;5008;50.656;7.188;2023-11-21T20:02:14;3.50;;;3.20;;
9938;SDS011;5008;50.656;7.188;2023-11-21T20:04:41;3.43;;;3.13;;
9938;SDS011;5008;50.656;7.188;2023-11-21T20:07:08;5.37;;;3.50;;
9938;SDS011;5008;50.656;7.188;2023-11-21T20:09:35;4.63;;;3.90;;
9938;SDS011;5008;50.656;7.188;2023-11-21T20:12:02;3.93;;;3.43;;
9938;SDS011;5008;50.656;7.188;2023-11-21T20:14:30;3.77;;;3.40;;
9938;SDS011;5008;50.656;7.188;2023-11-21T20:16:57;3.57;;;3.27;;